sensor_id;sensor_type;location;lat;lon;timestamp;P1;durP1;ratioP1;P2;durP2;ratioP2
30466;SDS011;17258;52.560;13.046;2023-05-07T00:08:19;4.68;;;4.05;;
30466;SDS011;17258;52.560;13.046;2023-05-07T00:18:20;6.13;;;4.22;;
30466;SDS011;17258;52.560;13.046;2023-05-07T00:28:22;4.30;;;3.95;;
30466;SDS011;17258;52.560;13.046;2023-05-07T00:38:23;3.57;;;3.27;;
30466;SDS011;17258;52.560;13.046;2023-05-07T00:48:23;4.05;;;3.65;;
30466;SDS011;17258;52.560;13.046;2023-05-07T00:58:25;6.28;;;3.20;;
30466;SDS011;17258;52.560;13.046;2023-05-07T01:08:26;4.55;;;3.60;;
30466;SDS011;17258;52.560;13.046;2023-05-07T01:18:29;4.53;;;3.90;;
30466;SDS011;17258;52.560;13.046;2023-05-07T01:28:30;3.58;;;3.10;;
30466;SDS011;17258;52.560;13.046;2023-05-07T01:38:30;2.90;;;2.70;;
30466;SDS011;17258;52.560;13.046;2023-05-07T01:48:32;4.40;;;2.58;;
30466;SDS011;17258;52.560;13.046;2023-05-07T01:58:33;3.92;;;2.63;;
30466;SDS011;17258;52.560;13.046;2023-05-07T02:08:34;6.40;;;3.20;;
30466;SDS011;17258;52.560;13.046;2023-05-07T02:18:35;2.80;;;2.60;;
30466;SDS011;17258;52.560;13.046;2023-05-07T02:28:35;2.88;;;2.38;;
30466;SDS011;17258;52.560;13.046;2023-05-07T02:38:36;3.67;;;3.27;;
30466;SDS011;17258;52.560;13.046;2023-05-07T02:48:37;3.25;;;2.95;;
30466;SDS011;17258;52.560;13.046;2023-05-07T02:58:38;4.07;;;3.75;;
30466;SDS011;17258;52.560;13.046;2023-05-07T03:08:39;3.80;;;3.50;;
30466;SDS011;17258;52.560;13.046;2023-05-07T03:18:40;3.25;;;3.00;;
30466;SDS011;17258;52.560;13.046;2023-05-07T03:28:41;3.70;;;3.33;;
30466;SDS011;17258;52.560;13.046;2023-05-07T03:38:41;3.27;;;3.07;;
30466;SDS011;17258;52.560;13.046;2023-05-07T03:48:42;2.90;;;2.70;;
30466;SDS011;17258;52.560;13.046;2023-05-07T03:58:43;3.60;;;3.13;;
30466;SDS011;17258;52.560;13.046;2023-05-07T04:08:43;3.73;;;3.43;;
30466;SDS011;17258;52.560;13.046;2023-05-07T04:18:44;3.30;;;3.08;;
30466;SDS011;17258;52.560;13.046;2023-05-07T04:28:45;2.55;;;2.35;;
30466;SDS011;17258;52.560;13.046;2023-05-07T04:38:45;2.92;;;2.72;;
30466;SDS011;17258;52.560;13.046;2023-05-07T04:48:46;2.75;;;2.28;;
30466;SDS011;17258;52.560;13.046;2023-05-07T04:58:47;2.60;;;2.40;;
30466;SDS011;17258;52.560;13.046;2023-05-07T05:08:47;3.00;;;2.77;;
30466;SDS011;17258;52.560;13.046;2023-05-07T05:18:48;3.43;;;2.47;;
30466;SDS011;17258;52.560;13.046;2023-05-07T05:28:49;3.15;;;2.85;;
30466;SDS011;17258;52.560;13.046;2023-05-07T05:38:49;2.92;;;2.72;;
30466;SDS011;17258;52.560;13.046;2023-05-07T05:48:50;3.00;;;2.40;;
30466;SDS011;17258;52.560;13.046;2023-05-07T05:58:51;2.37;;;2.17;;
30466;SDS011;17258;52.560;13.046;2023-05-07T06:08:51;2.25;;;1.90;;
30466;SDS011;17258;52.560;13.046;2023-05-07T06:18:52;1.80;;;1.70;;
30466;SDS011;17258;52.560;13.046;2023-05-07T06:28:53;2.67;;;2.47;;
30466;SDS011;17258;52.560;13.046;2023-05-07T06:38:53;2.33;;;2.13;;
30466;SDS011;17258;52.560;13.046;2023-05-07T06:48:54;2.47;;;2.28;;
30466;SDS011;17258;52.560;13.046;2023-05-07T06:58:56;2.22;;;2.08;;
30466;SDS011;17258;52.560;13.046;2023-05-07T07:09:00;2.95;;;2.53;;
30466;SDS011;17258;52.560;13.046;2023-05-07T07:19:01;3.35;;;2.95;;
30466;SDS011;17258;52.560;13.046;2023-05-07T07:29:01;2.70;;;2.50;;
30466;SDS011;17258;52.560;13.046;2023-05-07T07:39:02;2.50;;;2.27;;
30466;SDS011;17258;52.560;13.046;2023-05-07T07:49:03;2.35;;;2.13;;
30466;SDS011;17258;52.560;13.046;2023-05-07T07:59:03;2.60;;;2.40;;
30466;SDS011;17258;52.560;13.046;2023-05-07T08:09:04;2.05;;;1.85;;
30466;SDS011;17258;52.560;13.046;2023-05-07T08:19:05;1.80;;;1.70;;
30466;SDS011;17258;52.560;13.046;2023-05-07T08:29:06;1.90;;;1.80;;
30466;SDS011;17258;52.560;13.046;2023-05-07T08:39:07;2.35;;;1.60;;
30466;SDS011;17258;52.560;13.046;2023-05-07T08:49:08;1.43;;;1.33;;
30466;SDS011;17258;52.560;13.046;2023-05-07T08:59:08;1.40;;;1.30;;
30466;SDS011;17258;52.560;13.046;2023-05-07T09:09:09;4.93;;;1.50;;
30466;SDS011;17258;52.560;13.046;2023-05-07T09:19:14;2.10;;;1.90;;
30466;SDS011;17258;52.560;13.046;2023-05-07T09:29:15;1.83;;;1.60;;
30466;SDS011;17258;52.560;13.046;2023-05-07T09:39:17;1.33;;;1.23;;
30466;SDS011;17258;52.560;13.046;2023-05-07T09:49:20;1.90;;;1.80;;
30466;SDS011;17258;52.560;13.046;2023-05-07T09:59:23;1.48;;;1.40;;
30466;SDS011;17258;52.560;13.046;2023-05-07T10:09:25;16.55;;;15.65;;
30466;SDS011;17258;52.560;13.046;2023-05-07T10:19:26;18.80;;;17.60;;
30466;SDS011;17258;52.560;13.046;2023-05-07T10:29:32;19.15;;;17.80;;
30466;SDS011;17258;52.560;13.046;2023-05-07T10:39:39;19.40;;;18.10;;
30466;SDS011;17258;52.560;13.046;2023-05-07T10:59:41;18.65;;;17.45;;
30466;SDS011;17258;52.560;13.046;2023-05-07T11:09:55;18.60;;;17.40;;
30466;SDS011;17258;52.560;13.046;2023-05-07T11:20:04;18.58;;;17.13;;
30466;SDS011;17258;52.560;13.046;2023-05-07T11:30:06;19.45;;;18.15;;
30466;SDS011;17258;52.560;13.046;2023-05-07T11:40:08;18.52;;;17.33;;
30466;SDS011;17258;52.560;13.046;2023-05-07T11:50:10;18.38;;;17.17;;
30466;SDS011;17258;52.560;13.046;2023-05-07T12:00:11;18.33;;;17.13;;
30466;SDS011;17258;52.560;13.046;2023-05-07T12:10:12;3.85;;;3.55;;
30466;SDS011;17258;52.560;13.046;2023-05-07T12:20:13;1.48;;;1.38;;
30466;SDS011;17258;52.560;13.046;2023-05-07T12:30:14;13.32;;;12.63;;
30466;SDS011;17258;52.560;13.046;2023-05-07T12:40:15;20.07;;;18.70;;
30466;SDS011;17258;52.560;13.046;2023-05-07T12:50:16;20.30;;;18.90;;
30466;SDS011;17258;52.560;13.046;2023-05-07T13:00:17;19.15;;;17.85;;
30466;SDS011;17258;52.560;13.046;2023-05-07T13:10:17;19.02;;;17.73;;
30466;SDS011;17258;52.560;13.046;2023-05-07T13:20:18;19.88;;;18.48;;
30466;SDS011;17258;52.560;13.046;2023-05-07T13:30:19;19.88;;;18.48;;
30466;SDS011;17258;52.560;13.046;2023-05-07T13:40:20;20.20;;;18.70;;
30466;SDS011;17258;52.560;13.046;2023-05-07T13:50:22;16.10;;;15.20;;
30466;SDS011;17258;52.560;13.046;2023-05-07T14:00:23;4.75;;;4.55;;
30466;SDS011;17258;52.560;13.046;2023-05-07T14:10:26;2.65;;;1.75;;
30466;SDS011;17258;52.560;13.046;2023-05-07T14:20:27;1.00;;;1.00;;
30466;SDS011;17258;52.560;13.046;2023-05-07T14:30:30;0.80;;;0.80;;
30466;SDS011;17258;52.560;13.046;2023-05-07T14:40:31;0.80;;;0.80;;
30466;SDS011;17258;52.560;13.046;2023-05-07T14:50:31;0.65;;;0.65;;
30466;SDS011;17258;52.560;13.046;2023-05-07T15:00:33;0.80;;;0.70;;
30466;SDS011;17258;52.560;13.046;2023-05-07T15:10:37;0.70;;;0.70;;
30466;SDS011;17258;52.560;13.046;2023-05-07T15:20:41;0.73;;;0.73;;
30466;SDS011;17258;52.560;13.046;2023-05-07T15:30:42;0.98;;;0.80;;
30466;SDS011;17258;52.560;13.046;2023-05-07T15:40:43;1.87;;;0.80;;
30466;SDS011;17258;52.560;13.046;2023-05-07T15:50:44;0.75;;;0.75;;
30466;SDS011;17258;52.560;13.046;2023-05-07T16:00:45;0.95;;;0.75;;
30466;SDS011;17258;52.560;13.046;2023-05-07T16:10:46;0.60;;;0.60;;
30466;SDS011;17258;52.560;13.046;2023-05-07T16:20:47;0.90;;;0.90;;
30466;SDS011;17258;52.560;13.046;2023-05-07T16:30:47;1.20;;;0.90;;
30466;SDS011;17258;52.560;13.046;2023-05-07T16:40:48;1.93;;;1.10;;
30466;SDS011;17258;52.560;13.046;2023-05-07T16:50:49;0.70;;;0.70;;
30466;SDS011;17258;52.560;13.046;2023-05-07T17:00:49;1.13;;;1.00;;
30466;SDS011;17258;52.560;13.046;2023-05-07T17:10:50;6.30;;;6.00;;
30466;SDS011;17258;52.560;13.046;2023-05-07T17:20:51;8.97;;;8.47;;
30466;SDS011;17258;52.560;13.046;2023-05-07T17:30:52;15.30;;;14.30;;
30466;SDS011;17258;52.560;13.046;2023-05-07T17:40:52;8.43;;;7.93;;
30466;SDS011;17258;52.560;13.046;2023-05-07T17:50:59;1.70;;;1.30;;
30466;SDS011;17258;52.560;13.046;2023-05-07T18:01:01;0.80;;;0.80;;
30466;SDS011;17258;52.560;13.046;2023-05-07T18:11:02;1.00;;;1.00;;
30466;SDS011;17258;52.560;13.046;2023-05-07T18:21:04;0.90;;;0.80;;
30466;SDS011;17258;52.560;13.046;2023-05-07T18:31:05;1.75;;;0.98;;
30466;SDS011;17258;52.560;13.046;2023-05-07T18:41:06;1.08;;;0.70;;
30466;SDS011;17258;52.560;13.046;2023-05-07T18:51:07;0.90;;;0.90;;
30466;SDS011;17258;52.560;13.046;2023-05-07T19:01:11;1.23;;;0.90;;
30466;SDS011;17258;52.560;13.046;2023-05-07T19:11:12;1.10;;;0.90;;
30466;SDS011;17258;52.560;13.046;2023-05-07T19:21:13;1.20;;;1.10;;
30466;SDS011;17258;52.560;13.046;2023-05-07T19:31:17;1.00;;;0.90;;
30466;SDS011;17258;52.560;13.046;2023-05-07T19:41:20;0.82;;;0.82;;
30466;SDS011;17258;52.560;13.046;2023-05-07T19:51:21;1.67;;;1.10;;
30466;SDS011;17258;52.560;13.046;2023-05-07T20:01:21;1.05;;;1.05;;
30466;SDS011;17258;52.560;13.046;2023-05-07T20:11:22;1.20;;;1.10;;
30466;SDS011;17258;52.560;13.046;2023-05-07T20:21:23;1.10;;;1.10;;
30466;SDS011;17258;52.560;13.046;2023-05-07T20:31:24;1.33;;;1.23;;
30466;SDS011;17258;52.560;13.046;2023-05-07T20:41:24;1.00;;;1.00;;
30466;SDS011;17258;52.560;13.046;2023-05-07T20:51:25;0.90;;;0.90;;
30466;SDS011;17258;52.560;13.046;2023-05-07T21:01:26;1.35;;;1.20;;
30466;SDS011;17258;52.560;13.046;2023-05-07T21:11:28;1.38;;;1.30;;
30466;SDS011;17258;52.560;13.046;2023-05-07T21:21:29;1.48;;;1.23;;
30466;SDS011;17258;52.560;13.046;2023-05-07T21:31:30;1.20;;;1.20;;
30466;SDS011;17258;52.560;13.046;2023-05-07T21:41:30;1.50;;;1.40;;
30466;SDS011;17258;52.560;13.046;2023-05-07T21:51:31;2.07;;;1.33;;
30466;SDS011;17258;52.560;13.046;2023-05-07T22:01:33;1.80;;;1.70;;
30466;SDS011;17258;52.560;13.046;2023-05-07T22:11:34;2.20;;;1.50;;
30466;SDS011;17258;52.560;13.046;2023-05-07T22:21:35;1.73;;;1.60;;
30466;SDS011;17258;52.560;13.046;2023-05-07T22:31:35;1.70;;;1.60;;
30466;SDS011;17258;52.560;13.046;2023-05-07T22:41:36;1.57;;;1.47;;
30466;SDS011;17258;52.560;13.046;2023-05-07T22:51:36;1.50;;;1.40;;
30466;SDS011;17258;52.560;13.046;2023-05-07T23:01:37;2.80;;;1.33;;
30466;SDS011;17258;52.560;13.046;2023-05-07T23:11:38;1.60;;;1.50;;
30466;SDS011;17258;52.560;13.046;2023-05-07T23:21:38;1.58;;;1.50;;
30466;SDS011;17258;52.560;13.046;2023-05-07T23:31:39;1.47;;;1.37;;
30466;SDS011;17258;52.560;13.046;2023-05-07T23:41:40;1.33;;;1.23;;
30466;SDS011;17258;52.560;13.046;2023-05-07T23:51:40;1.57;;;1.47;;
